ジャカルタ の空港の天気 - METARとTAF

スカルノハッタ国際空港 ( WIII / CGK ) - インドネシア バンテン州、Cengkareng ( ジャカルタ近郊)
飛行場実況気象(Metar)
観測時間01/17 13:30 WIB (01/17 06:30 UTC)
風向・風速北西 8m/s
視程9000m
天気現象
全天の4割程度の雲 雲底高度 610m
気温31℃
湿度62%
気圧1009hPa
METARWIII 170630Z 31016KT 9000 SCT020 31/23 Q1009 NOSIG
過去の天気等 Google飛行場航空写真 Wunderground天気予報

過去48時間のMETAR

飛行場予報(TAF)
発表時間: 1/17 12:00 WIB (1/17 05:00 UTC)
予報対象時間: 17日13時 WIB ~ 18日19時 WIB
風向・風速西 6m/s
視程8,000m
全天の4割程度の雲 雲底高度 640m
全天の8割程度の雲 雲底高度 4,880m
17日17時 WIB ~ 17日21時 WIB に一時的に
風向・風速南西 5m/s 瞬間風速 10m/s
視程3,000m
天気現象雷雨
全天の8割程度の雲 雲底高度 460m
少しの積乱雲 雲底高度 520m
17日21時 WIB ~ 17日23時 WIB に徐々に
風向・風速南西 3m/s
18日8時 WIB ~ 18日10時 WIB に徐々に
風向・風速西 6m/s
18日14時 WIB ~ 18日17時 WIB に一時的に
天気現象周辺で雷
少しの積乱雲 雲底高度 610m
TAF WIII 170500Z 1706/1812 26012KT 8000 SCT021 BKN160
TEMPO 1710/1714 23010G20KT 3000 TSRA BKN015 FEW017CB
BECMG 1714/1716 23006KT
BECMG 1801/1803 27012KT
TEMPO 1807/1810 VCTS FEW020CB